Time;durP1;ratioP1;P1;durP2;ratioP2;P2;SDS_P1;SDS_P2;PMS_P1;PMS_P2;Temp;Humidity;BMP_temperature;BMP_pressure;BME280_temperature;BME280_humidity;BME280_pressure;Samples;Min_cycle;Max_cycle;Signal;HPM_P1;HPM_P2
2020/12/22 00:00:04;;;;;;;3.97;2.00;;;8.70;99.90;;;;;;6225150;23;20063;-92
2020/12/22 00:02:32;;;;;;;3.20;1.67;;;8.70;99.90;;;;;;6225057;23;20000;-92
2020/12/22 00:05:21;;;;;;;3.53;2.00;;;8.60;99.90;;;;;;6222041;23;20406;-93
2020/12/22 00:07:50;;;;;;;4.40;1.43;;;8.70;99.90;;;;;;6253307;23;19996;-92
2020/12/22 00:10:20;;;;;;;3.90;1.80;;;8.80;99.90;;;;;;6226731;23;20337;-91
2020/12/22 00:12:49;;;;;;;3.93;2.20;;;8.80;99.90;;;;;;6225791;23;20056;-93
2020/12/22 00:15:24;;;;;;;4.20;2.03;;;8.70;99.90;;;;;;6224236;23;20334;-92
2020/12/22 00:17:55;;;;;;;3.77;2.17;;;8.70;99.90;;;;;;6224792;23;20098;-92
2020/12/22 00:20:25;;;;;;;3.87;2.23;;;8.80;99.90;;;;;;6223195;23;20004;-92
2020/12/22 00:22:51;;;;;;;4.83;2.00;;;8.80;99.90;;;;;;6225094;23;20031;-91
2020/12/22 00:25:17;;;;;;;4.47;1.80;;;8.80;99.90;;;;;;6225583;23;20585;-92
2020/12/22 00:27:49;;;;;;;4.10;2.07;;;8.80;99.90;;;;;;6225858;23;20004;-92
2020/12/22 00:30:30;;;;;;;4.93;2.00;;;8.80;99.90;;;;;;6223034;23;20016;-92
2020/12/22 00:33:00;;;;;;;3.40;1.57;;;8.80;99.90;;;;;;6224394;23;19996;-91
2020/12/22 00:35:30;;;;;;;3.07;1.73;;;8.80;99.90;;;;;;6226655;23;20000;-92
2020/12/22 00:37:57;;;;;;;3.20;1.40;;;8.90;99.90;;;;;;6224014;23;20394;-92
2020/12/22 00:40:26;;;;;;;3.07;1.53;;;9.00;99.90;;;;;;6223310;23;20004;-91
2020/12/22 00:42:55;;;;;;;3.30;1.17;;;9.00;99.90;;;;;;6225406;23;20009;-92
2020/12/22 00:45:27;;;;;;;3.67;1.70;;;9.00;99.90;;;;;;6226629;23;20007;-92
2020/12/22 00:47:56;;;;;;;2.65;1.10;;;9.00;99.90;;;;;;6226373;23;20004;-92
2020/12/22 00:50:26;;;;;;;1.87;1.00;;;9.00;99.90;;;;;;6226401;23;20004;-92
2020/12/22 00:53:01;;;;;;;2.97;1.10;;;9.10;99.90;;;;;;6226977;23;20342;-92
2020/12/22 00:55:34;;;;;;;2.93;1.20;;;9.10;99.90;;;;;;6227785;23;20315;-92
2020/12/22 00:58:11;;;;;;;2.83;1.10;;;9.20;99.90;;;;;;6227168;23;20031;-92
2020/12/22 01:00:40;;;;;;;1.80;0.80;;;9.20;99.90;;;;;;6235877;22;20005;-92
2020/12/22 01:03:14;;;;;;;2.43;0.97;;;9.20;99.90;;;;;;6233616;23;20360;-91
2020/12/22 01:05:49;;;;;;;2.50;0.83;;;9.20;99.90;;;;;;6233924;23;20005;-93
2020/12/22 01:08:19;;;;;;;1.97;0.93;;;9.30;99.90;;;;;;6227518;23;20019;-93
2020/12/22 01:10:56;;;;;;;2.67;1.07;;;9.30;99.90;;;;;;6224532;23;20019;-93
2020/12/22 01:13:29;;;;;;;1.50;0.67;;;9.20;99.90;;;;;;6222598;23;20009;-93
2020/12/22 01:16:29;;;;;;;2.60;1.00;;;9.40;99.90;;;;;;6227452;23;20004;-92
2020/12/22 01:19:12;;;;;;;2.57;0.90;;;9.30;99.90;;;;;;6228415;23;20083;-93
2020/12/22 01:21:41;;;;;;;2.58;0.60;;;9.30;99.90;;;;;;6228124;23;20087;-92
2020/12/22 01:24:12;;;;;;;2.77;0.80;;;9.40;99.90;;;;;;6231011;23;20032;-93
2020/12/22 01:26:58;;;;;;;2.13;0.73;;;9.50;99.90;;;;;;6228278;23;20000;-93
2020/12/22 01:29:26;;;;;;;1.70;0.57;;;9.40;99.90;;;;;;6226517;23;20005;-94
2020/12/22 01:31:54;;;;;;;1.37;0.40;;;9.50;99.90;;;;;;6228983;23;20000;-93
2020/12/22 01:34:32;;;;;;;1.73;0.50;;;9.50;99.90;;;;;;6229794;23;20004;-93
2020/12/22 01:36:59;;;;;;;1.20;0.50;;;9.50;99.90;;;;;;6229364;23;20011;-93
2020/12/22 01:39:28;;;;;;;1.43;0.50;;;9.60;99.90;;;;;;6223602;23;20008;-93
2020/12/22 01:42:02;;;;;;;1.43;0.40;;;9.60;99.90;;;;;;6230093;23;20055;-93
2020/12/22 01:44:40;;;;;;;1.97;0.40;;;9.60;99.90;;;;;;6228776;23;20008;-93
2020/12/22 01:47:13;;;;;;;2.40;0.40;;;9.60;99.90;;;;;;6227374;23;20004;-93
2020/12/22 01:49:40;;;;;;;1.37;0.50;;;9.60;99.90;;;;;;6230374;23;20000;-93
2020/12/22 01:52:07;;;;;;;0.53;0.20;;;9.60;99.90;;;;;;6225643;23;20092;-91
2020/12/22 01:54:44;;;;;;;3.47;0.47;;;9.70;99.90;;;;;;6229653;23;20008;-92
2020/12/22 01:57:17;;;;;;;0.70;0.30;;;9.70;99.90;;;;;;6225623;23;20011;-93
2020/12/22 01:59:52;;;;;;;0.90;0.30;;;9.80;99.90;;;;;;6225746;23;20004;-92
2020/12/22 02:02:27;;;;;;;1.00;0.40;;;9.80;99.90;;;;;;6221404;23;20004;-92
2020/12/22 02:05:05;;;;;;;0.60;0.30;;;9.90;99.90;;;;;;6227290;23;20023;-92
2020/12/22 02:07:46;;;;;;;0.87;0.40;;;9.90;99.90;;;;;;6223221;23;20008;-93
2020/12/22 02:10:16;;;;;;;1.23;0.20;;;9.80;99.90;;;;;;6224695;23;20008;-93
2020/12/22 02:12:43;;;;;;;1.10;0.30;;;9.80;99.90;;;;;;6221664;23;20008;-92
2020/12/22 02:15:15;;;;;;;0.97;0.20;;;9.80;99.90;;;;;;6223626;23;20028;-93
2020/12/22 02:17:45;;;;;;;1.50;0.30;;;9.80;99.90;;;;;;6219506;23;20028;-92
2020/12/22 02:20:20;;;;;;;0.30;0.17;;;9.90;99.90;;;;;;6221761;23;20004;-92
2020/12/22 02:22:52;;;;;;;0.87;0.20;;;9.90;99.90;;;;;;6222231;23;20004;-93
2020/12/22 02:25:44;;;;;;;0.70;0.20;;;10.00;99.90;;;;;;6224897;23;20008;-92
2020/12/22 02:28:10;;;;;;;0.30;0.10;;;10.10;99.90;;;;;;6222086;23;20004;-93
2020/12/22 02:30:37;;;;;;;0.50;0.20;;;10.00;99.90;;;;;;6221214;23;20004;-93
2020/12/22 02:33:06;;;;;;;0.70;0.33;;;10.00;99.90;;;;;;6224566;23;20015;-93
2020/12/22 02:35:33;;;;;;;0.10;0.10;;;10.10;99.90;;;;;;6223366;23;20004;-93
2020/12/22 02:38:03;;;;;;;0.97;0.10;;;10.00;99.90;;;;;;6227083;23;20064;-94
2020/12/22 02:40:29;;;;;;;1.20;0.23;;;10.00;99.90;;;;;;6226237;23;20054;-93
2020/12/22 02:43:12;;;;;;;0.33;0.10;;;10.00;99.90;;;;;;6225571;23;20000;-93
2020/12/22 02:45:55;;;;;;;0.32;0.10;;;10.00;99.90;;;;;;6228851;23;19999;-92
2020/12/22 02:48:24;;;;;;;1.23;0.20;;;10.10;99.90;;;;;;6230699;23;19996;-93
2020/12/22 02:50:58;;;;;;;1.57;0.10;;;10.10;99.90;;;;;;6227186;23;20024;-92
2020/12/22 02:53:39;;;;;;;1.67;0.20;;;10.00;99.90;;;;;;6227138;23;20004;-93
2020/12/22 02:56:05;;;;;;;0.77;0.10;;;10.10;99.90;;;;;;6228606;23;20055;-92
2020/12/22 02:58:32;;;;;;;0.20;0.00;;;10.10;99.90;;;;;;6221785;23;20027;-92
2020/12/22 03:01:08;;;;;;;0.20;0.10;;;10.10;99.90;;;;;;6225341;22;20004;-91
2020/12/22 03:03:41;;;;;;;0.33;0.10;;;10.10;99.90;;;;;;6240338;22;20000;-92
2020/12/22 03:06:10;;;;;;;2.33;0.13;;;10.10;99.90;;;;;;6245991;22;20004;-91
2020/12/22 03:08:50;;;;;;;0.20;0.07;;;10.10;99.90;;;;;;6245581;22;20012;-92
2020/12/22 03:11:17;;;;;;;0.50;0.20;;;10.10;99.90;;;;;;6245919;22;19992;-92
2020/12/22 03:13:47;;;;;;;0.30;0.10;;;10.20;99.90;;;;;;6234537;23;20046;-93
2020/12/22 03:16:16;;;;;;;0.40;0.10;;;10.20;99.90;;;;;;6226093;23;20008;-92
2020/12/22 03:18:52;;;;;;;0.47;0.10;;;10.20;99.90;;;;;;6226049;23;20010;-92
2020/12/22 03:21:30;;;;;;;0.43;0.10;;;10.20;99.90;;;;;;6230577;23;20051;-92
2020/12/22 03:24:00;;;;;;;0.20;0.10;;;10.20;99.90;;;;;;6221843;23;20009;-92
2020/12/22 03:26:30;;;;;;;0.70;0.10;;;10.30;99.90;;;;;;6221536;23;20007;-91
2020/12/22 03:28:59;;;;;;;0.40;0.10;;;10.20;99.90;;;;;;6221596;23;20004;-93
2020/12/22 03:31:36;;;;;;;0.47;0.10;;;10.30;99.90;;;;;;6221996;23;20311;-93
2020/12/22 03:34:14;;;;;;;1.07;0.20;;;10.30;99.90;;;;;;6240256;22;20024;-92
2020/12/22 03:36:49;;;;;;;0.50;0.40;;;10.30;99.90;;;;;;6228847;23;20035;-92
2020/12/22 03:39:27;;;;;;;0.70;0.10;;;10.40;99.90;;;;;;6225055;23;20481;-93
2020/12/22 03:42:12;;;;;;;0.37;0.10;;;10.40;99.90;;;;;;6221486;23;20004;-92
2020/12/22 03:44:51;;;;;;;0.30;0.10;;;10.40;99.90;;;;;;6248572;23;20004;-92
2020/12/22 03:47:23;;;;;;;0.50;0.10;;;10.40;99.90;;;;;;6219002;23;20083;-93
2020/12/22 03:50:27;;;;;;;0.30;0.10;;;10.40;99.90;;;;;;6221612;23;20027;-94
2020/12/22 03:52:59;;;;;;;0.43;0.10;;;10.40;99.90;;;;;;6223237;23;20000;-93
2020/12/22 03:55:42;;;;;;;0.43;0.20;;;10.40;99.90;;;;;;6222457;23;20000;-93
2020/12/22 03:58:18;;;;;;;0.60;0.10;;;10.50;99.90;;;;;;6220213;23;20031;-93
2020/12/22 04:00:53;;;;;;;0.38;0.10;;;10.50;99.90;;;;;;6222540;23;20007;-93
2020/12/22 04:03:28;;;;;;;0.23;0.00;;;10.40;99.90;;;;;;6222829;23;20004;-92
2020/12/22 04:06:06;;;;;;;0.40;0.10;;;10.40;99.90;;;;;;6221731;23;20000;-92
2020/12/22 04:08:36;;;;;;;0.30;0.00;;;10.40;99.90;;;;;;6222872;23;20000;-93
2020/12/22 04:11:19;;;;;;;0.10;0.00;;;10.50;99.90;;;;;;6222544;23;20001;-93
2020/12/22 04:13:52;;;;;;;1.43;0.10;;;10.50;99.90;;;;;;6218148;23;20008;-93
2020/12/22 04:19:27;;;;;;;0.30;0.00;;;10.50;99.90;;;;;;6172935;23;20008;-93
2020/12/22 04:22:21;;;;;;;0.10;0.00;;;10.50;99.90;;;;;;6222715;23;20019;-93
2020/12/22 04:24:57;;;;;;;0.77;0.20;;;10.50;99.90;;;;;;6227408;23;20004;-95
2020/12/22 04:27:30;;;;;;;1.03;0.17;;;10.40;99.90;;;;;;6223877;23;20028;-93
2020/12/22 04:30:00;;;;;;;1.60;0.00;;;10.50;99.90;;;;;;6240431;23;20426;-91
2020/12/22 04:32:33;;;;;;;0.00;0.00;;;10.60;99.90;;;;;;6237711;23;19993;-93
2020/12/22 04:35:02;;;;;;;0.30;0.03;;;10.50;99.90;;;;;;6225433;23;20004;-93
2020/12/22 04:37:41;;;;;;;0.00;0.00;;;10.40;99.90;;;;;;6221331;23;20496;-93
2020/12/22 04:40:13;;;;;;;0.67;0.10;;;10.50;99.90;;;;;;6224956;23;20004;-93
2020/12/22 04:42:42;;;;;;;0.00;0.00;;;10.60;99.90;;;;;;6220201;23;20024;-93
2020/12/22 04:45:15;;;;;;;1.90;0.00;;;10.60;99.90;;;;;;6223337;23;20311;-92
2020/12/22 04:47:50;;;;;;;0.20;0.10;;;10.50;99.90;;;;;;6218423;23;20000;-94
2020/12/22 04:50:24;;;;;;;0.63;0.10;;;10.50;99.90;;;;;;6223145;23;20007;-94
2020/12/22 04:53:04;;;;;;;0.10;0.00;;;10.60;99.90;;;;;;6226062;23;20008;-93
2020/12/22 04:55:37;;;;;;;0.98;0.10;;;10.60;99.90;;;;;;6225260;23;20071;-94
2020/12/22 04:58:05;;;;;;;0.50;0.00;;;10.60;99.90;;;;;;6226697;23;20011;-92
2020/12/22 05:00:38;;;;;;;1.07;0.10;;;10.60;99.90;;;;;;6226848;23;20015;-92
2020/12/22 05:03:05;;;;;;;0.53;0.10;;;10.60;99.90;;;;;;6228145;23;20060;-93
2020/12/22 05:05:47;;;;;;;;;;;;;;;;;;;;;
2020/12/22 05:08:20;;;;;;;0.60;0.00;;;10.60;99.90;;;;;;6228112;23;20038;-92
2020/12/22 05:10:51;;;;;;;1.85;0.10;;;10.60;99.90;;;;;;6222881;23;20026;-94
2020/12/22 05:13:25;;;;;;;2.08;0.10;;;10.50;99.90;;;;;;6224039;23;20008;-93
2020/12/22 05:15:55;;;;;;;0.63;0.10;;;10.70;99.90;;;;;;6223787;23;20096;-93
2020/12/22 05:18:38;;;;;;;0.20;0.00;;;10.60;99.90;;;;;;6230876;23;20035;-92
2020/12/22 05:21:08;;;;;;;0.40;0.03;;;10.60;99.90;;;;;;6228779;23;20296;-93
2020/12/22 05:23:47;;;;;;;0.73;0.10;;;10.60;99.90;;;;;;6224688;23;20841;-92
2020/12/22 05:26:13;;;;;;;0.83;0.20;;;10.60;99.90;;;;;;6225630;23;20047;-93
2020/12/22 05:28:44;;;;;;;1.70;0.10;;;10.60;99.90;;;;;;6225135;23;20000;-93
2020/12/22 05:31:17;;;;;;;0.28;0.00;;;10.50;99.90;;;;;;6223947;23;20014;-93
2020/12/22 05:33:54;;;;;;;0.10;0.00;;;10.50;99.90;;;;;;6221756;23;20016;-93
2020/12/22 05:37:26;;;;;;;0.13;0.10;;;10.50;99.90;;;;;;6223627;23;20004;-92
2020/12/22 05:39:30;;;;;;;0.77;0.07;;;10.50;99.90;;;;;;6233433;23;20023;-92
2020/12/22 05:41:56;;;;;;;0.53;0.00;;;10.50;99.90;;;;;;6223450;23;20079;-93
2020/12/22 05:44:26;;;;;;;0.63;0.10;;;10.60;99.90;;;;;;6223686;23;20430;-94
2020/12/22 05:47:02;;;;;;;0.47;0.20;;;10.60;99.90;;;;;;6218886;23;20000;-94
2020/12/22 05:49:28;;;;;;;2.00;0.10;;;10.60;99.90;;;;;;6223801;23;20004;-93
2020/12/22 05:51:55;;;;;;;0.60;0.10;;;10.60;99.90;;;;;;6220998;23;20039;-93
2020/12/22 05:54:22;;;;;;;0.57;0.10;;;10.70;99.90;;;;;;6220685;23;20058;-93
2020/12/22 05:56:47;;;;;;;0.97;0.00;;;10.70;99.90;;;;;;6223397;23;20004;-93
2020/12/22 05:59:20;;;;;;;0.27;0.03;;;10.70;99.90;;;;;;6224021;23;20019;-93
2020/12/22 06:01:47;;;;;;;1.27;0.03;;;10.50;99.90;;;;;;6221800;23;20004;-92
2020/12/22 06:04:12;;;;;;;0.10;0.00;;;10.70;99.90;;;;;;6225701;23;20019;-94
2020/12/22 06:06:38;;;;;;;0.20;0.00;;;10.70;99.90;;;;;;6223491;23;20063;-92
2020/12/22 06:09:03;;;;;;;1.73;0.10;;;10.80;99.90;;;;;;6222114;23;20059;-92
2020/12/22 06:11:29;;;;;;;0.20;0.03;;;10.90;99.90;;;;;;6221777;23;20000;-93
2020/12/22 06:13:57;;;;;;;0.77;0.10;;;10.90;99.90;;;;;;6221266;23;20011;-92
2020/12/22 06:16:23;;;;;;;0.43;0.10;;;11.00;99.90;;;;;;6222093;23;20009;-93
2020/12/22 06:18:58;;;;;;;0.10;0.10;;;11.00;99.90;;;;;;6225621;22;20022;-94
2020/12/22 07:59:23;;;;;;;1.05;0.10;;;11.80;99.90;;;;;;6173770;23;20025;-93
2020/12/22 08:01:52;;;;;;;0.17;0.10;;;11.80;99.90;;;;;;6243019;23;20009;-93
2020/12/22 08:04:22;;;;;;;0.10;0.03;;;11.80;99.90;;;;;;6206704;23;20021;-92
2020/12/22 08:07:02;;;;;;;0.40;0.10;;;11.80;99.90;;;;;;6209028;23;19989;-93
2020/12/22 08:09:31;;;;;;;0.13;0.00;;;11.80;99.90;;;;;;6206661;23;20013;-93
2020/12/22 08:11:59;;;;;;;1.08;0.10;;;11.60;99.90;;;;;;6207517;23;20008;-93
2020/12/22 08:14:26;;;;;;;0.00;0.00;;;11.80;99.90;;;;;;6207914;23;20020;-94
2020/12/22 08:17:04;;;;;;;0.55;0.13;;;11.80;99.90;;;;;;6207152;23;19997;-94
2020/12/22 08:19:30;;;;;;;0.22;0.10;;;11.80;99.90;;;;;;6204609;23;20053;-93
2020/12/22 08:22:00;;;;;;;0.17;0.00;;;11.80;99.90;;;;;;6198277;23;20005;-93
2020/12/22 08:24:29;;;;;;;0.32;0.10;;;11.80;99.90;;;;;;6199468;23;20032;-93
2020/12/22 08:26:55;;;;;;;0.10;0.03;;;11.80;99.90;;;;;;6208208;23;20000;-94
2020/12/22 08:29:21;;;;;;;0.30;0.00;;;11.80;99.90;;;;;;6212109;23;20055;-93
2020/12/22 08:31:47;;;;;;;0.40;0.00;;;11.80;99.90;;;;;;6206999;23;19996;-92
2020/12/22 08:34:17;;;;;;;0.00;0.00;;;11.90;99.90;;;;;;6204286;23;20012;-93
2020/12/22 08:36:45;;;;;;;0.00;0.00;;;11.90;99.90;;;;;;6208874;23;20009;-94
2020/12/22 08:39:16;;;;;;;0.22;0.03;;;11.80;99.90;;;;;;6205134;23;20035;-93
2020/12/22 08:41:43;;;;;;;0.50;0.10;;;11.80;99.90;;;;;;6207400;23;20011;-92
2020/12/22 08:44:10;;;;;;;0.20;0.10;;;11.80;99.90;;;;;;6188079;23;20005;-93
2020/12/22 08:46:37;;;;;;;0.05;0.00;;;11.80;99.90;;;;;;6195471;23;20323;-93
2020/12/22 08:49:28;;;;;;;0.10;0.10;;;11.80;99.90;;;;;;6203407;23;20036;-91
2020/12/22 08:51:56;;;;;;;1.00;0.10;;;11.90;99.90;;;;;;6191902;23;20012;-92
2020/12/22 08:54:28;;;;;;;2.33;0.20;;;11.80;99.90;;;;;;6194422;23;20084;-92
2020/12/22 08:57:11;;;;;;;0.17;0.10;;;11.90;99.90;;;;;;6197205;23;20505;-93
2020/12/22 08:59:37;;;;;;;3.00;0.40;;;11.90;99.90;;;;;;6198015;23;20075;-92
2020/12/22 09:02:02;;;;;;;0.47;0.10;;;12.00;99.90;;;;;;6205261;23;19988;-92
2020/12/22 09:04:29;;;;;;;1.40;0.25;;;12.00;99.90;;;;;;6196990;23;20114;-92
2020/12/22 09:06:55;;;;;;;1.13;0.22;;;12.10;99.90;;;;;;6193560;23;20051;-92
2020/12/22 09:09:31;;;;;;;0.40;0.10;;;12.10;99.90;;;;;;6190977;23;20008;-92
2020/12/22 09:12:08;;;;;;;0.80;0.20;;;12.10;99.90;;;;;;6201334;23;19997;-94
2020/12/22 09:14:44;;;;;;;0.65;0.20;;;12.10;99.90;;;;;;6212470;23;20031;-92
2020/12/22 09:17:25;;;;;;;0.73;0.10;;;12.00;99.90;;;;;;6212473;23;20011;-95
2020/12/22 09:19:52;;;;;;;0.47;0.20;;;12.00;99.90;;;;;;6212195;23;20005;-95
2020/12/22 09:22:22;;;;;;;0.20;0.10;;;12.00;99.90;;;;;;6212211;23;20024;-95
2020/12/22 09:24:52;;;;;;;0.90;0.10;;;11.90;99.90;;;;;;6212706;23;20028;-93
2020/12/22 09:27:30;;;;;;;0.30;0.10;;;11.90;99.90;;;;;;6212883;23;20052;-96
2020/12/22 10:26:52;;;;;;;1.20;0.20;;;11.90;99.90;;;;;;6168143;23;20041;-93
2020/12/22 10:29:18;;;;;;;0.47;0.10;;;12.10;99.90;;;;;;6171943;23;20001;-92
2020/12/22 10:31:43;;;;;;;3.70;0.30;;;12.00;99.90;;;;;;6187825;23;20049;-93
2020/12/22 11:54:26;;;;;;;1.00;0.10;;;12.40;99.90;;;;;;6171421;23;20013;-95
2020/12/22 11:56:52;;;;;;;0.63;0.10;;;12.30;99.90;;;;;;6195753;23;20005;-91
2020/12/22 12:07:32;;;;;;;1.13;0.10;;;12.40;99.90;;;;;;6211186;23;20016;-93
2020/12/22 12:10:01;;;;;;;0.43;0.20;;;12.40;99.90;;;;;;6221887;23;20388;-93
2020/12/22 12:15:08;;;;;;;0.75;0.10;;;12.40;99.90;;;;;;6218081;23;20035;-95
2020/12/22 12:17:34;;;;;;;0.03;0.00;;;12.60;99.90;;;;;;6197797;23;19997;-94
2020/12/22 12:20:00;;;;;;;0.20;0.10;;;12.50;99.90;;;;;;6192564;23;20011;-92
2020/12/22 12:22:27;;;;;;;1.08;0.10;;;12.60;99.90;;;;;;6219085;23;20004;-92
2020/12/22 12:24:54;;;;;;;0.30;0.10;;;12.60;99.90;;;;;;6231824;23;19992;-92
2020/12/22 12:27:20;;;;;;;0.25;0.10;;;12.70;99.90;;;;;;6226204;23;20008;-93
2020/12/22 12:29:45;;;;;;;0.60;0.10;;;12.70;99.90;;;;;;6243985;23;20343;-92
2020/12/22 12:32:11;;;;;;;0.28;0.08;;;12.80;99.90;;;;;;6249203;23;20173;-93
2020/12/22 12:34:37;;;;;;;0.40;0.10;;;12.80;99.90;;;;;;6251991;23;20020;-94
2020/12/22 12:37:05;;;;;;;0.30;0.20;;;12.70;99.90;;;;;;6250237;23;20103;-93
2020/12/22 12:39:31;;;;;;;1.10;0.10;;;12.80;99.90;;;;;;6249752;23;20004;-93
2020/12/22 12:41:56;;;;;;;0.85;0.20;;;12.80;99.90;;;;;;6257507;22;20008;-94
2020/12/22 12:44:22;;;;;;;0.20;0.10;;;12.80;99.90;;;;;;6248881;23;20019;-93
2020/12/22 12:46:52;;;;;;;1.52;0.20;;;12.80;99.90;;;;;;6252563;23;20030;-93
2020/12/22 12:49:20;;;;;;;0.43;0.10;;;12.70;99.90;;;;;;6226447;23;20457;-93
2020/12/22 12:51:46;;;;;;;1.42;0.10;;;12.50;99.90;;;;;;6253157;23;20011;-93
2020/12/22 12:54:13;;;;;;;0.40;0.10;;;12.60;99.90;;;;;;6256683;22;20004;-92
2020/12/22 12:56:39;;;;;;;0.63;0.13;;;12.70;99.90;;;;;;6206798;23;20461;-93
2020/12/22 12:59:05;;;;;;;1.10;0.20;;;12.60;99.90;;;;;;6255122;23;20004;-93
2020/12/22 13:01:31;;;;;;;0.47;0.10;;;12.60;99.90;;;;;;6229059;23;19996;-91
2020/12/22 13:03:56;;;;;;;0.50;0.10;;;12.50;99.90;;;;;;6251398;23;20353;-93
2020/12/22 13:06:25;;;;;;;0.20;0.03;;;12.50;99.90;;;;;;6252634;23;20000;-94
2020/12/22 13:09:27;;;;;;;0.38;0.05;;;12.50;99.90;;;;;;6261713;22;19992;-93
2020/12/22 13:12:26;;;;;;;0.05;0.03;;;12.50;99.90;;;;;;6245380;22;19999;-91
2020/12/22 13:15:24;;;;;;;0.20;0.10;;;12.50;99.90;;;;;;6244337;22;20004;-92
2020/12/22 13:20:49;;;;;;;0.10;0.10;;;12.40;99.90;;;;;;6250306;22;20004;-91
2020/12/22 13:27:08;;;;;;;0.30;0.10;;;12.50;99.90;;;;;;6150112;23;20009;-92
2020/12/22 13:33:27;;;;;;;1.27;0.13;;;12.40;99.90;;;;;;6248135;23;20032;-94
2020/12/22 13:35:52;;;;;;;0.20;0.00;;;12.30;99.90;;;;;;6225196;23;20000;-93
2020/12/22 13:38:18;;;;;;;0.05;0.00;;;12.20;99.90;;;;;;6248160;23;20323;-92
2020/12/22 13:40:44;;;;;;;0.55;0.10;;;12.30;99.90;;;;;;6246842;23;20004;-95
2020/12/22 13:43:10;;;;;;;1.02;0.17;;;12.20;99.90;;;;;;6246033;23;20008;-94
2020/12/22 13:45:36;;;;;;;0.80;0.10;;;12.10;99.90;;;;;;6244954;23;20446;-93
2020/12/22 13:48:02;;;;;;;0.15;0.10;;;12.20;99.90;;;;;;6220257;23;20047;-92
2020/12/22 13:50:28;;;;;;;0.38;0.13;;;12.00;99.90;;;;;;6245562;23;20489;-93
2020/12/22 13:52:54;;;;;;;1.60;0.20;;;12.00;99.90;;;;;;6245762;23;20457;-92
2020/12/22 13:55:20;;;;;;;0.82;0.20;;;12.00;99.90;;;;;;6246632;23;20004;-93
2020/12/22 13:57:51;;;;;;;0.63;0.10;;;11.90;99.90;;;;;;6247251;23;20074;-94
2020/12/22 14:01:00;;;;;;;0.30;0.10;;;12.00;99.90;;;;;;6262116;23;20000;-94
2020/12/22 14:03:51;;;;;;;0.70;0.20;;;11.90;99.90;;;;;;6123746;23;20021;-95
2020/12/22 14:37:43;;;;;;;1.95;0.30;;;12.00;99.90;;;;;;6164927;23;20017;-92
2020/12/22 14:40:18;;;;;;;0.43;0.13;;;12.00;99.90;;;;;;6162799;23;20013;-94
2020/12/22 14:43:13;;;;;;;2.35;0.30;;;12.10;99.90;;;;;;6186767;23;20096;-91
2020/12/22 14:45:44;;;;;;;0.20;0.10;;;12.00;99.90;;;;;;6185810;23;20005;-91
2020/12/22 14:48:16;;;;;;;0.25;0.10;;;12.00;99.90;;;;;;6196672;23;20005;-92
2020/12/22 14:50:47;;;;;;;0.55;0.20;;;12.00;99.90;;;;;;6194258;23;20008;-91
2020/12/22 14:53:36;;;;;;;0.90;0.30;;;12.00;99.90;;;;;;6194614;23;20131;-93
2020/12/22 14:56:06;;;;;;;1.25;0.22;;;12.00;99.90;;;;;;6195347;23;20008;-91
2020/12/22 14:58:32;;;;;;;0.50;0.20;;;11.90;99.90;;;;;;6197861;23;19997;-92
2020/12/22 15:01:16;;;;;;;2.83;0.30;;;11.90;99.90;;;;;;6194829;23;20721;-92
2020/12/22 15:03:44;;;;;;;0.80;0.30;;;11.90;99.90;;;;;;6192789;23;20011;-91
2020/12/22 15:06:11;;;;;;;0.57;0.30;;;11.90;99.90;;;;;;6188916;23;20029;-90
2020/12/22 15:08:41;;;;;;;0.90;0.20;;;11.90;99.90;;;;;;6192139;23;20023;-91
2020/12/22 15:11:08;;;;;;;0.77;0.20;;;11.80;99.90;;;;;;6189046;23;20031;-91
2020/12/22 15:13:41;;;;;;;1.23;0.40;;;11.80;99.90;;;;;;6188805;23;20449;-90
2020/12/22 15:16:15;;;;;;;0.98;0.30;;;11.80;99.90;;;;;;6190151;23;20004;-91
2020/12/22 15:18:47;;;;;;;1.42;0.20;;;11.80;99.90;;;;;;6190041;23;20031;-92
2020/12/22 15:21:17;;;;;;;1.10;0.30;;;11.80;99.90;;;;;;6190467;23;20493;-90
2020/12/22 15:23:49;;;;;;;2.45;0.30;;;11.70;99.90;;;;;;6200037;23;20015;-92
2020/12/22 15:26:14;;;;;;;;;;;11.70;99.90;;;;;;6214803;23;20085;-93
2020/12/22 15:28:43;;;;;;;0.82;0.40;;;11.70;99.90;;;;;;6213337;23;19892;-92
2020/12/22 15:31:29;;;;;;;1.80;0.30;;;11.70;99.90;;;;;;6214752;23;20004;-94
2020/12/22 17:23:09;;;;;;;2.55;0.95;;;11.50;99.90;;;;;;6183692;23;20025;-84
2020/12/22 17:25:35;;;;;;;4.00;0.82;;;11.50;99.90;;;;;;6188307;23;20011;-87
2020/12/22 17:28:00;;;;;;;2.13;0.90;;;11.60;99.90;;;;;;6191059;23;19997;-87
2020/12/22 17:30:26;;;;;;;2.72;1.10;;;11.60;99.90;;;;;;6189536;23;20001;-88
2020/12/22 17:32:51;;;;;;;4.50;1.08;;;11.60;99.90;;;;;;6212777;23;20075;-84
2020/12/22 17:35:17;;;;;;;1.65;0.60;;;11.60;99.90;;;;;;6216947;23;20021;-85
2020/12/22 17:37:43;;;;;;;3.38;0.70;;;11.60;99.90;;;;;;6188743;23;20083;-87
2020/12/22 17:40:08;;;;;;;2.97;0.90;;;11.60;99.90;;;;;;6188407;23;20486;-87
2020/12/22 17:42:34;;;;;;;3.03;0.80;;;11.60;99.90;;;;;;6239505;23;20009;-86
2020/12/22 17:45:01;;;;;;;4.38;0.88;;;11.60;99.90;;;;;;6188193;23;20386;-87
2020/12/22 17:47:27;;;;;;;2.58;1.20;;;11.60;99.90;;;;;;6188217;23;20008;-84
2020/12/22 17:49:53;;;;;;;3.03;0.70;;;11.50;99.90;;;;;;6163408;23;20004;-89
2020/12/22 17:52:19;;;;;;;3.22;0.95;;;11.50;99.90;;;;;;6183543;23;20364;-87
2020/12/22 17:54:44;;;;;;;1.95;0.77;;;11.60;99.90;;;;;;6188400;23;20043;-85
2020/12/22 17:57:10;;;;;;;2.58;0.93;;;11.60;99.90;;;;;;6188448;23;20008;-90
2020/12/22 17:59:36;;;;;;;3.50;0.70;;;11.60;99.90;;;;;;6239055;23;20454;-87
2020/12/22 18:02:01;;;;;;;3.22;0.80;;;11.60;99.90;;;;;;6188552;23;20087;-87
2020/12/22 18:04:27;;;;;;;1.77;0.80;;;11.60;99.90;;;;;;6238707;23;20094;-88
2020/12/22 18:06:53;;;;;;;2.08;0.50;;;11.60;99.90;;;;;;6215682;23;19996;-90
2020/12/22 18:09:18;;;;;;;1.70;0.57;;;11.60;99.90;;;;;;6187818;23;20008;-89
2020/12/22 18:11:44;;;;;;;1.95;0.77;;;11.60;99.90;;;;;;6239076;23;20028;-87
2020/12/22 18:14:10;;;;;;;3.08;1.10;;;11.50;99.90;;;;;;6215361;23;20142;-87
2020/12/22 18:16:36;;;;;;;2.90;0.80;;;11.50;99.90;;;;;;6189682;23;20004;-86
2020/12/22 18:19:02;;;;;;;1.58;0.60;;;11.50;99.90;;;;;;6187466;23;20005;-87
2020/12/22 18:21:29;;;;;;;1.70;0.68;;;11.60;99.90;;;;;;6191959;23;20004;-87
2020/12/22 18:23:55;;;;;;;3.00;0.75;;;11.60;99.90;;;;;;6215205;23;20043;-84
2020/12/22 18:26:21;;;;;;;2.90;0.65;;;11.60;99.90;;;;;;6188806;23;20001;-84
2020/12/22 18:28:47;;;;;;;4.40;0.70;;;11.60;99.90;;;;;;6224934;23;20007;-83
2020/12/22 18:31:12;;;;;;;2.13;0.70;;;11.60;99.90;;;;;;6208345;23;20001;-84
2020/12/22 18:33:38;;;;;;;3.28;0.68;;;11.50;99.90;;;;;;6191700;23;20005;-84
2020/12/22 18:36:04;;;;;;;1.95;0.60;;;11.60;99.90;;;;;;6189095;23;20000;-84
2020/12/22 18:38:29;;;;;;;2.53;0.70;;;11.50;99.90;;;;;;6188479;23;20079;-83
2020/12/22 18:40:56;;;;;;;3.28;0.70;;;11.50;99.90;;;;;;6214608;23;20004;-84
2020/12/22 18:43:23;;;;;;;3.13;0.63;;;11.60;99.90;;;;;;6185641;23;20058;-84
2020/12/22 18:45:50;;;;;;;1.83;0.50;;;11.60;99.90;;;;;;6189174;23;20001;-84
2020/12/22 18:48:15;;;;;;;3.35;0.65;;;11.60;99.90;;;;;;6184893;23;20016;-84
2020/12/22 18:50:43;;;;;;;2.35;0.68;;;11.60;99.90;;;;;;6188257;23;20341;-84
2020/12/22 18:53:09;;;;;;;1.80;0.57;;;11.60;99.90;;;;;;6187721;23;20005;-84
2020/12/22 18:55:34;;;;;;;1.17;0.50;;;11.60;99.90;;;;;;6188603;23;20008;-84
2020/12/22 18:58:01;;;;;;;1.70;0.68;;;11.60;99.90;;;;;;6188423;23;20016;-84
2020/12/22 19:00:27;;;;;;;1.55;0.50;;;11.60;99.90;;;;;;6187159;23;20095;-85
2020/12/22 19:02:53;;;;;;;2.00;0.50;;;11.60;99.90;;;;;;6188922;23;20352;-84
2020/12/22 19:05:19;;;;;;;1.45;0.50;;;11.60;99.90;;;;;;6187453;23;20001;-85
2020/12/22 19:07:44;;;;;;;1.33;0.45;;;11.50;99.90;;;;;;6186681;23;20007;-85
2020/12/22 19:10:10;;;;;;;2.08;0.65;;;11.50;99.90;;;;;;6212846;23;20246;-84
2020/12/22 19:12:38;;;;;;;2.28;0.70;;;11.40;99.90;;;;;;6187434;23;20000;-85
2020/12/22 19:15:04;;;;;;;1.35;0.57;;;11.40;99.90;;;;;;6190318;23;20043;-84
2020/12/22 19:17:30;;;;;;;2.30;0.60;;;11.50;99.90;;;;;;6215635;23;20411;-85
2020/12/22 19:19:55;;;;;;;3.20;0.90;;;11.40;99.90;;;;;;6237703;23;20087;-85
2020/12/22 19:22:23;;;;;;;2.47;0.77;;;11.40;99.90;;;;;;6156999;23;20027;-84
2020/12/22 19:24:51;;;;;;;2.00;0.70;;;11.40;99.90;;;;;;6215237;23;20040;-84
2020/12/22 19:27:17;;;;;;;2.53;0.73;;;11.40;99.90;;;;;;6214173;23;20103;-86
2020/12/22 19:29:42;;;;;;;1.90;0.60;;;11.40;99.90;;;;;;6187016;23;20084;-85
2020/12/22 19:32:09;;;;;;;3.08;1.52;;;11.40;99.90;;;;;;6244759;22;20016;-84
2020/12/22 19:34:36;;;;;;;2.67;1.00;;;11.40;99.90;;;;;;6232592;22;20057;-84
2020/12/22 19:37:04;;;;;;;3.08;1.13;;;11.50;99.90;;;;;;6218343;23;20004;-85
2020/12/22 19:39:30;;;;;;;3.83;0.68;;;11.50;99.90;;;;;;6242872;23;20059;-84
2020/12/22 19:41:56;;;;;;;2.03;1.00;;;11.50;99.90;;;;;;6243939;23;20004;-85
2020/12/22 19:44:23;;;;;;;3.53;1.17;;;11.60;99.90;;;;;;6241138;23;20012;-84
2020/12/22 19:46:50;;;;;;;3.55;1.10;;;11.60;99.90;;;;;;6242092;23;20051;-84
2020/12/22 19:49:19;;;;;;;2.65;0.90;;;11.60;99.90;;;;;;6216413;23;20000;-85